Time;durP1;ratioP1;P1;durP2;ratioP2;P2;SDS_P1;SDS_P2;PMS_P1;PMS_P2;Temp;Humidity;BMP_temperature;BMP_pressure;BME280_temperature;BME280_humidity;BME280_pressure;Samples;Min_cycle;Max_cycle;Signal;HPM_P1;HPM_P2
2023/07/16 00:00:19;;;;;;;5.20;1.05;;;17.20;99.90;;;;;;4997646;28;20054;-34
2023/07/16 00:02:44;;;;;;;5.70;1.23;;;17.20;99.90;;;;;;4995867;28;20125;-34
2023/07/16 00:05:10;;;;;;;4.60;1.30;;;17.30;99.90;;;;;;5000546;28;20125;-34
2023/07/16 00:07:36;;;;;;;7.18;1.17;;;17.30;99.90;;;;;;4990739;28;20054;-34
2023/07/16 00:10:02;;;;;;;5.05;1.23;;;17.30;99.90;;;;;;4993359;28;20162;-34
2023/07/16 00:12:27;;;;;;;5.32;1.23;;;17.30;99.90;;;;;;4998564;28;20415;-34
2023/07/16 00:14:55;;;;;;;3.85;0.70;;;17.30;99.90;;;;;;4999571;28;20050;-34
2023/07/16 00:17:20;;;;;;;5.35;0.98;;;17.20;99.90;;;;;;5005369;28;20053;-34
2023/07/16 00:19:46;;;;;;;7.47;1.23;;;17.20;99.90;;;;;;5001416;28;20042;-34
2023/07/16 00:22:12;;;;;;;7.55;2.13;;;17.10;99.90;;;;;;5000703;28;20080;-34
2023/07/16 00:24:37;;;;;;;6.90;1.10;;;17.10;99.90;;;;;;5000183;28;20566;-34
2023/07/16 00:27:03;;;;;;;7.00;0.90;;;17.10;99.90;;;;;;5002811;28;20054;-35
2023/07/16 00:29:29;;;;;;;3.95;0.98;;;17.00;99.90;;;;;;4998530;28;20778;-34
2023/07/16 00:31:55;;;;;;;5.10;0.82;;;17.00;99.90;;;;;;5002235;28;20069;-34
2023/07/16 00:34:20;;;;;;;4.68;1.35;;;17.00;99.90;;;;;;5001255;28;20046;-35
2023/07/16 00:36:46;;;;;;;4.03;0.90;;;16.90;99.90;;;;;;5007738;28;20467;-35
2023/07/16 00:39:11;;;;;;;5.03;1.08;;;16.80;99.90;;;;;;5003128;28;20133;-34
2023/07/16 00:41:37;;;;;;;6.40;1.20;;;16.70;99.90;;;;;;5001758;28;20054;-34
2023/07/16 00:44:03;;;;;;;6.32;1.25;;;16.80;99.90;;;;;;5001009;28;20050;-35
2023/07/16 00:46:29;;;;;;;4.90;1.20;;;16.80;99.90;;;;;;4996910;28;20074;-33
2023/07/16 00:48:54;;;;;;;4.82;1.17;;;16.70;99.90;;;;;;4999817;28;20042;-34
2023/07/16 00:51:22;;;;;;;4.28;1.02;;;16.70;99.90;;;;;;4999841;28;20440;-33
2023/07/16 00:53:48;;;;;;;4.50;0.90;;;16.70;99.90;;;;;;5004367;28;20046;-33
2023/07/16 00:56:17;;;;;;;3.10;0.80;;;16.70;99.90;;;;;;5003279;28;20042;-33
2023/07/16 00:58:43;;;;;;;7.35;1.10;;;16.70;99.90;;;;;;5003631;28;20132;-33
2023/07/16 01:01:09;;;;;;;3.28;0.93;;;16.70;99.90;;;;;;5007357;28;20142;-33
2023/07/16 01:03:34;;;;;;;6.75;1.17;;;16.70;99.90;;;;;;5006033;28;20049;-33
2023/07/16 01:06:22;;;;;;;8.70;1.02;;;16.60;99.90;;;;;;5008088;28;20057;-33
2023/07/16 01:08:52;;;;;;;4.10;1.20;;;16.60;99.90;;;;;;5003881;28;20423;-34
2023/07/16 01:11:18;;;;;;;4.18;1.02;;;16.60;99.90;;;;;;5001469;28;20054;-33
2023/07/16 01:13:45;;;;;;;4.60;0.80;;;16.60;99.90;;;;;;5001572;28;20057;-34
2023/07/16 01:16:21;;;;;;;8.90;1.35;;;16.70;99.90;;;;;;5003896;28;20077;-34
2023/07/16 01:18:47;;;;;;;5.90;1.80;;;16.80;99.90;;;;;;4999660;28;20057;-33
2023/07/16 01:21:13;;;;;;;4.55;1.40;;;16.90;99.90;;;;;;5001746;28;20054;-34
2023/07/16 01:24:06;;;;;;;3.08;1.05;;;17.00;99.90;;;;;;5006200;28;20069;-33
2023/07/16 01:26:50;;;;;;;6.32;1.67;;;17.00;99.90;;;;;;5005064;28;20068;-34
2023/07/16 01:29:41;;;;;;;8.00;1.33;;;17.10;99.90;;;;;;5005872;28;20049;-33
2023/07/16 01:32:08;;;;;;;4.20;1.15;;;17.10;99.90;;;;;;5007355;28;20574;-34
2023/07/16 01:34:36;;;;;;;9.77;1.52;;;17.10;99.90;;;;;;4999188;28;20054;-34
2023/07/16 01:37:03;;;;;;;5.72;1.33;;;17.10;99.90;;;;;;5001349;28;20058;-34
2023/07/16 01:39:30;;;;;;;4.10;1.15;;;17.10;99.90;;;;;;4994218;28;20034;-34
2023/07/16 01:41:56;;;;;;;4.35;1.48;;;17.10;99.90;;;;;;4995549;28;20061;-33
2023/07/16 01:44:22;;;;;;;8.75;1.20;;;17.10;99.90;;;;;;5000579;28;20699;-34
2023/07/16 01:47:21;;;;;;;6.43;1.30;;;17.10;99.90;;;;;;5005898;28;20062;-34
2023/07/16 01:49:47;;;;;;;5.95;1.70;;;17.10;99.90;;;;;;4991739;28;20104;-34
2023/07/16 01:52:13;;;;;;;6.30;1.27;;;17.00;99.90;;;;;;4995962;28;20050;-34
2023/07/16 01:54:39;;;;;;;8.45;1.58;;;17.00;99.90;;;;;;4993891;28;20165;-34
2023/07/16 01:57:04;;;;;;;7.88;1.80;;;17.00;99.90;;;;;;4998484;28;20401;-34
2023/07/16 01:59:30;;;;;;;5.70;1.42;;;17.00;99.90;;;;;;4982551;28;20396;-34
2023/07/16 02:01:56;;;;;;;4.78;1.27;;;17.00;99.90;;;;;;5009942;28;20045;-33
2023/07/16 02:04:21;;;;;;;4.82;1.45;;;17.00;99.90;;;;;;4998808;28;20099;-33
2023/07/16 02:06:50;;;;;;;10.07;1.77;;;16.90;99.90;;;;;;4989862;28;20143;-33
2023/07/16 02:09:16;;;;;;;3.42;1.27;;;16.90;99.90;;;;;;4993850;28;20054;-34
2023/07/16 02:11:41;;;;;;;8.77;1.90;;;16.80;99.90;;;;;;4993909;28;20061;-35
2023/07/16 02:14:07;;;;;;;6.15;1.42;;;16.90;99.90;;;;;;4995326;28;20053;-34
2023/07/16 02:16:32;;;;;;;3.03;1.10;;;16.80;99.90;;;;;;4997218;28;20043;-34
2023/07/16 02:18:58;;;;;;;4.85;1.38;;;16.80;99.90;;;;;;4986435;28;20058;-34
2023/07/16 02:21:24;;;;;;;3.53;1.45;;;16.80;99.90;;;;;;4994929;28;20492;-33
2023/07/16 02:23:49;;;;;;;5.47;1.65;;;16.80;99.90;;;;;;4998321;28;20108;-33
2023/07/16 02:26:15;;;;;;;3.40;1.27;;;16.80;99.90;;;;;;4995382;28;20112;-33
2023/07/16 02:28:40;;;;;;;6.03;1.50;;;16.80;99.90;;;;;;5006738;28;20053;-33
2023/07/16 02:31:06;;;;;;;5.88;1.40;;;16.80;99.90;;;;;;5004871;28;20459;-33
2023/07/16 02:33:32;;;;;;;4.22;1.40;;;16.80;99.90;;;;;;4996883;28;20042;-34
2023/07/16 02:35:57;;;;;;;4.93;1.63;;;16.80;99.90;;;;;;4995647;28;20436;-33
2023/07/16 02:38:23;;;;;;;7.65;1.67;;;16.80;99.90;;;;;;4998764;28;20427;-34
2023/07/16 02:40:49;;;;;;;9.02;1.42;;;16.80;99.90;;;;;;4997662;28;20066;-33
2023/07/16 02:43:15;;;;;;;4.38;1.63;;;16.70;99.90;;;;;;4981078;28;20042;-34
2023/07/16 02:45:41;;;;;;;5.75;1.58;;;16.70;99.90;;;;;;5003315;28;20053;-33
2023/07/16 02:48:07;;;;;;;4.97;1.70;;;16.70;99.90;;;;;;4988696;28;20054;-34
2023/07/16 02:50:37;;;;;;;5.15;1.60;;;16.70;99.90;;;;;;4997311;28;20140;-34
2023/07/16 02:53:06;;;;;;;4.97;1.85;;;16.70;99.90;;;;;;4998612;28;20058;-33
2023/07/16 02:55:32;;;;;;;6.40;1.42;;;16.70;99.90;;;;;;4997951;28;20178;-33
2023/07/16 02:57:57;;;;;;;6.28;2.13;;;16.60;99.90;;;;;;4991258;28;20398;-33
2023/07/16 03:00:23;;;;;;;5.10;1.80;;;16.60;99.90;;;;;;4990080;28;20053;-33
2023/07/16 03:02:49;;;;;;;6.50;2.13;;;16.60;99.90;;;;;;4991998;28;20053;-34
2023/07/16 03:05:18;;;;;;;9.30;2.53;;;16.50;99.90;;;;;;4977686;28;20054;-33
2023/07/16 03:07:44;;;;;;;5.28;1.75;;;16.50;99.90;;;;;;4989735;28;20449;-33
2023/07/16 03:10:10;;;;;;;4.82;1.50;;;16.50;99.90;;;;;;4997399;28;20143;-33
2023/07/16 03:12:35;;;;;;;4.32;1.52;;;16.50;99.90;;;;;;4994389;28;20042;-33
2023/07/16 03:15:01;;;;;;;7.57;1.90;;;16.50;99.90;;;;;;5001625;28;20052;-33
2023/07/16 03:17:27;;;;;;;8.98;1.98;;;16.50;99.90;;;;;;5002154;28;20081;-34
2023/07/16 03:19:52;;;;;;;8.70;1.98;;;16.40;99.90;;;;;;4992080;28;20107;-34
2023/07/16 03:22:18;;;;;;;5.97;1.75;;;16.40;99.90;;;;;;4993194;28;20349;-33
2023/07/16 03:24:44;;;;;;;5.78;2.10;;;16.40;99.90;;;;;;4990015;28;20470;-33
2023/07/16 03:27:09;;;;;;;5.18;1.77;;;16.40;99.90;;;;;;5002606;28;20065;-33
2023/07/16 03:29:35;;;;;;;8.77;1.77;;;16.40;99.90;;;;;;5001461;28;20053;-33
2023/07/16 03:32:01;;;;;;;7.55;2.10;;;16.40;99.90;;;;;;4992628;28;20054;-33
2023/07/16 03:34:27;;;;;;;8.90;1.92;;;16.40;99.90;;;;;;4988986;28;20054;-33
2023/07/16 03:36:53;;;;;;;5.00;2.00;;;16.30;99.90;;;;;;4993774;28;20103;-33
2023/07/16 03:39:18;;;;;;;9.40;3.30;;;16.30;99.90;;;;;;4993332;28;20486;-33
2023/07/16 03:41:44;;;;;;;7.43;1.80;;;16.30;99.90;;;;;;5001170;28;20416;-33
2023/07/16 03:44:10;;;;;;;7.72;1.85;;;16.30;99.90;;;;;;4995189;28;20049;-33
2023/07/16 03:46:36;;;;;;;8.65;2.20;;;16.30;99.90;;;;;;4999993;28;20507;-33
2023/07/16 03:49:02;;;;;;;7.60;2.03;;;16.20;99.90;;;;;;4991802;28;20054;-33
2023/07/16 03:51:27;;;;;;;3.83;2.05;;;16.30;99.90;;;;;;4993398;28;20070;-33
2023/07/16 03:53:53;;;;;;;6.90;1.83;;;16.30;99.90;;;;;;4999424;28;20645;-33
2023/07/16 03:56:18;;;;;;;5.53;1.83;;;16.30;99.90;;;;;;4999354;28;20203;-34
2023/07/16 03:58:44;;;;;;;6.80;2.00;;;16.30;99.90;;;;;;5000262;28;20067;-33
2023/07/16 04:01:10;;;;;;;6.85;2.03;;;16.30;99.90;;;;;;4989186;28;20073;-33
2023/07/16 04:03:35;;;;;;;7.88;2.85;;;16.30;99.90;;;;;;4994860;28;20129;-34
2023/07/16 04:06:05;;;;;;;11.05;2.45;;;16.20;99.90;;;;;;4986664;28;20050;-33
2023/07/16 04:08:31;;;;;;;9.40;2.05;;;16.30;99.90;;;;;;4986305;28;20137;-34
2023/07/16 04:10:57;;;;;;;4.45;1.65;;;16.30;99.90;;;;;;4997316;28;20208;-34
2023/07/16 04:13:22;;;;;;;10.25;2.13;;;16.30;99.90;;;;;;5001455;28;20076;-34
2023/07/16 04:15:48;;;;;;;10.80;2.55;;;16.30;99.90;;;;;;4982609;28;20097;-33
2023/07/16 04:18:14;;;;;;;8.52;2.13;;;16.30;99.90;;;;;;5001008;28;20397;-33
2023/07/16 04:20:40;;;;;;;6.07;2.00;;;16.30;99.90;;;;;;4998456;28;20091;-33
2023/07/16 04:23:05;;;;;;;6.20;2.28;;;16.30;99.90;;;;;;4989706;28;20416;-33
2023/07/16 04:25:31;;;;;;;5.28;1.90;;;16.30;99.90;;;;;;4997094;28;20454;-33
2023/07/16 04:27:57;;;;;;;6.18;1.45;;;16.40;99.90;;;;;;4992173;28;20049;-33
2023/07/16 04:30:23;;;;;;;5.80;1.65;;;16.30;99.90;;;;;;5000722;28;20054;-33
2023/07/16 04:32:48;;;;;;;4.30;1.75;;;16.30;99.90;;;;;;4993829;28;20438;-33
2023/07/16 04:35:14;;;;;;;5.38;1.33;;;16.30;99.90;;;;;;4985441;28;20116;-33
2023/07/16 04:37:39;;;;;;;8.00;2.10;;;16.30;99.90;;;;;;5009767;28;20518;-34
2023/07/16 04:40:06;;;;;;;5.43;1.83;;;16.30;99.90;;;;;;5002932;28;20049;-33
2023/07/16 04:42:32;;;;;;;6.10;1.92;;;16.40;99.90;;;;;;4996246;28;20042;-33
2023/07/16 04:44:57;;;;;;;8.68;1.98;;;16.40;99.90;;;;;;5001780;28;20054;-33
2023/07/16 04:47:23;;;;;;;6.53;1.88;;;16.40;99.90;;;;;;5000306;28;21450;-35
2023/07/16 04:49:48;;;;;;;5.30;1.38;;;16.50;99.90;;;;;;4998166;28;20077;-37
2023/07/16 04:52:14;;;;;;;4.28;1.48;;;16.50;99.90;;;;;;4994787;28;20058;-33
2023/07/16 04:54:40;;;;;;;4.70;1.65;;;16.50;99.90;;;;;;5002006;28;20046;-34
2023/07/16 04:57:07;;;;;;;4.60;1.40;;;16.60;99.90;;;;;;4998438;28;20054;-34
2023/07/16 04:59:32;;;;;;;8.85;2.15;;;16.70;99.90;;;;;;5003870;28;20054;-33
2023/07/16 05:01:58;;;;;;;5.97;1.65;;;16.70;99.90;;;;;;4995858;28;20053;-46
2023/07/16 05:04:24;;;;;;;5.57;1.80;;;16.70;99.90;;;;;;4983492;28;20433;-33
2023/07/16 05:06:49;;;;;;;5.65;1.70;;;16.80;99.90;;;;;;4976330;28;20062;-33
2023/07/16 05:09:15;;;;;;;6.55;1.70;;;16.80;99.90;;;;;;4996228;28;20120;-33
2023/07/16 05:11:41;;;;;;;6.45;1.63;;;16.80;99.90;;;;;;4994695;28;20042;-33
2023/07/16 05:14:06;;;;;;;6.97;1.83;;;16.90;99.90;;;;;;4994756;28;20054;-33
2023/07/16 05:16:32;;;;;;;7.40;1.73;;;16.90;99.90;;;;;;4997748;28;20053;-33
2023/07/16 05:18:57;;;;;;;5.07;1.63;;;16.90;99.90;;;;;;4996851;28;20060;-33
2023/07/16 05:21:23;;;;;;;4.53;1.42;;;17.00;99.90;;;;;;4995192;28;20100;-33
2023/07/16 05:23:49;;;;;;;5.85;1.33;;;17.00;99.90;;;;;;4994675;28;20133;-33
2023/07/16 05:26:15;;;;;;;6.00;1.60;;;17.00;99.90;;;;;;4993099;28;20076;-33
2023/07/16 05:28:40;;;;;;;6.85;1.80;;;17.10;99.90;;;;;;4999139;28;20065;-33
2023/07/16 05:31:06;;;;;;;8.32;2.03;;;17.10;99.90;;;;;;4997826;28;20453;-33
2023/07/16 05:33:31;;;;;;;7.93;2.10;;;17.10;99.90;;;;;;5000468;28;20456;-34
2023/07/16 05:35:57;;;;;;;9.25;1.92;;;17.10;99.90;;;;;;4990124;28;20378;-33
2023/07/16 05:38:23;;;;;;;4.78;1.70;;;17.20;99.90;;;;;;4984926;28;20059;-33
2023/07/16 05:40:49;;;;;;;4.82;1.63;;;17.20;99.90;;;;;;5000267;28;20137;-33
2023/07/16 05:43:15;;;;;;;9.27;2.47;;;17.20;99.90;;;;;;4988241;28;20828;-33
2023/07/16 05:45:41;;;;;;;7.95;1.95;;;17.20;99.90;;;;;;5001641;28;20060;-33
2023/07/16 05:48:06;;;;;;;7.90;2.08;;;17.30;99.90;;;;;;4987687;28;20047;-33
2023/07/16 05:50:32;;;;;;;14.35;3.22;;;17.30;99.90;;;;;;5000323;28;20091;-34
2023/07/16 05:52:58;;;;;;;7.85;1.98;;;17.40;99.90;;;;;;4994673;28;20455;-33
2023/07/16 05:55:23;;;;;;;6.25;1.83;;;17.40;99.90;;;;;;5013537;28;20081;-34
2023/07/16 05:57:50;;;;;;;6.85;1.80;;;17.40;99.90;;;;;;4992294;28;20417;-33
2023/07/16 06:00:16;;;;;;;8.98;1.80;;;17.40;99.90;;;;;;4998222;28;20058;-33
2023/07/16 06:02:42;;;;;;;7.75;2.22;;;17.50;99.90;;;;;;4994958;28;20034;-33
2023/07/16 06:05:08;;;;;;;7.60;2.60;;;17.50;99.90;;;;;;4998501;28;20042;-34
2023/07/16 06:07:34;;;;;;;6.78;2.00;;;17.60;99.90;;;;;;5000222;28;20046;-34
2023/07/16 06:09:59;;;;;;;6.88;2.25;;;17.60;99.90;;;;;;4993774;28;20053;-33
2023/07/16 06:12:25;;;;;;;6.88;2.03;;;17.70;99.90;;;;;;4995637;28;20111;-33
2023/07/16 06:14:51;;;;;;;6.60;2.08;;;17.80;99.90;;;;;;4984794;28;20168;-33
2023/07/16 06:17:16;;;;;;;8.70;2.22;;;17.80;99.90;;;;;;5003242;28;20072;-33
2023/07/16 06:19:43;;;;;;;5.28;2.47;;;17.80;99.90;;;;;;5000674;28;20404;-33
2023/07/16 06:22:08;;;;;;;6.75;2.30;;;17.90;99.90;;;;;;5004632;28;20140;-33
2023/07/16 06:24:35;;;;;;;8.00;2.63;;;18.00;99.90;;;;;;4996066;28;20122;-33
2023/07/16 06:27:00;;;;;;;7.55;2.25;;;18.00;99.90;;;;;;4996660;28;20621;-33
2023/07/16 06:29:26;;;;;;;5.25;2.25;;;18.10;99.90;;;;;;4993887;28;20042;-34
2023/07/16 06:31:56;;;;;;;7.55;2.00;;;18.20;99.90;;;;;;4994558;28;20049;-34
2023/07/16 06:34:23;;;;;;;6.25;1.90;;;18.20;99.90;;;;;;4992446;28;20061;-34
2023/07/16 06:36:48;;;;;;;6.40;2.15;;;18.20;99.90;;;;;;4981876;28;20093;-34
2023/07/16 06:39:14;;;;;;;5.70;2.28;;;18.20;99.90;;;;;;4983637;28;20054;-34
2023/07/16 06:41:40;;;;;;;6.10;2.05;;;18.30;99.90;;;;;;4998029;28;20058;-35
2023/07/16 06:44:05;;;;;;;6.38;2.03;;;18.30;99.90;;;;;;4990960;28;20478;-34
2023/07/16 06:46:31;;;;;;;8.18;2.00;;;18.40;99.90;;;;;;4994767;28;20058;-34
2023/07/16 06:48:57;;;;;;;7.38;2.28;;;18.40;99.90;;;;;;4997042;28;20417;-34
2023/07/16 06:51:23;;;;;;;5.55;2.35;;;18.40;99.90;;;;;;4997546;28;20423;-34
2023/07/16 06:53:49;;;;;;;8.00;2.40;;;18.50;99.90;;;;;;4996568;28;20060;-34
2023/07/16 06:56:14;;;;;;;5.30;2.28;;;18.50;99.90;;;;;;5002683;28;20223;-34
2023/07/16 06:58:40;;;;;;;5.35;2.20;;;18.50;99.90;;;;;;4991571;28;20127;-34
2023/07/16 07:01:06;;;;;;;7.03;2.47;;;18.60;99.90;;;;;;4987719;28;20058;-34
2023/07/16 07:03:33;;;;;;;6.38;2.47;;;18.60;99.90;;;;;;4999525;28;20406;-35
2023/07/16 07:06:03;;;;;;;5.15;1.88;;;18.70;99.90;;;;;;4986705;28;20046;-34
2023/07/16 07:08:29;;;;;;;6.13;2.17;;;18.80;99.90;;;;;;4999509;28;20061;-34
2023/07/16 07:10:54;;;;;;;5.57;1.95;;;18.80;99.90;;;;;;4995908;28;20050;-34
2023/07/16 07:13:20;;;;;;;7.45;2.35;;;18.80;99.90;;;;;;4993679;28;20060;-34
2023/07/16 07:15:46;;;;;;;5.57;2.15;;;18.80;99.90;;;;;;4999738;28;20057;-33
2023/07/16 07:18:11;;;;;;;6.55;2.40;;;18.90;99.90;;;;;;4994509;28;20463;-34
2023/07/16 07:20:37;;;;;;;6.72;1.65;;;18.90;99.90;;;;;;4992472;28;20193;-35
2023/07/16 07:23:04;;;;;;;6.25;2.10;;;18.90;99.90;;;;;;4995896;28;20058;-34
2023/07/16 07:25:30;;;;;;;5.85;1.48;;;18.90;99.90;;;;;;5012886;28;20476;-34
2023/07/16 07:27:56;;;;;;;6.40;2.00;;;19.00;99.90;;;;;;4992359;28;20053;-33
2023/07/16 07:30:22;;;;;;;6.28;1.73;;;19.00;99.90;;;;;;4994289;28;20061;-34
2023/07/16 07:32:47;;;;;;;7.53;2.25;;;19.00;99.90;;;;;;4984018;28;20389;-34
2023/07/16 07:35:13;;;;;;;6.03;2.20;;;19.00;99.90;;;;;;4984843;28;20097;-33
2023/07/16 07:37:39;;;;;;;4.45;2.05;;;19.00;99.90;;;;;;4985951;28;20054;-34
2023/07/16 07:40:05;;;;;;;6.32;2.42;;;19.00;99.90;;;;;;4988832;28;20821;-34
2023/07/16 07:42:31;;;;;;;6.38;2.53;;;19.10;99.90;;;;;;4998174;28;20061;-34
2023/07/16 07:44:57;;;;;;;7.38;2.58;;;19.20;99.90;;;;;;4990495;28;20061;-33
2023/07/16 07:47:22;;;;;;;9.63;3.22;;;19.40;99.90;;;;;;4989857;28;20065;-35
2023/07/16 07:49:48;;;;;;;5.97;1.83;;;19.50;99.90;;;;;;4986165;28;20504;-33
2023/07/16 07:52:14;;;;;;;6.95;1.90;;;19.70;99.90;;;;;;4997001;28;20042;-35
2023/07/16 07:54:39;;;;;;;5.88;1.98;;;19.80;99.90;;;;;;4983655;28;20128;-34
2023/07/16 07:57:05;;;;;;;4.70;1.83;;;19.90;99.90;;;;;;4989591;28;20049;-34
2023/07/16 07:59:31;;;;;;;9.00;2.42;;;19.90;99.90;;;;;;4988491;28;20474;-34
2023/07/16 08:01:58;;;;;;;6.57;2.05;;;19.90;99.90;;;;;;5003397;28;20484;-34
2023/07/16 08:04:24;;;;;;;5.70;1.85;;;19.90;99.90;;;;;;4978639;28;20417;-34
2023/07/16 08:06:51;;;;;;;4.10;2.00;;;19.90;99.90;;;;;;4997237;28;20049;-34
2023/07/16 08:09:17;;;;;;;5.95;2.00;;;19.80;99.90;;;;;;4996801;28;20046;-34
2023/07/16 08:11:42;;;;;;;7.18;2.40;;;19.80;99.90;;;;;;4996412;28;20057;-34
2023/07/16 08:14:08;;;;;;;6.63;1.98;;;19.80;99.90;;;;;;4995703;28;20050;-34
2023/07/16 08:16:34;;;;;;;7.03;2.15;;;19.80;99.90;;;;;;4996643;28;20468;-34
2023/07/16 08:18:59;;;;;;;6.70;2.10;;;19.80;99.90;;;;;;4981150;28;20062;-34
2023/07/16 08:21:25;;;;;;;5.28;2.20;;;19.80;99.90;;;;;;4988359;28;20494;-34
2023/07/16 08:23:52;;;;;;;9.23;1.98;;;19.70;99.90;;;;;;4993244;28;20096;-34
2023/07/16 08:26:17;;;;;;;8.40;3.20;;;19.80;99.90;;;;;;4991124;28;20194;-35
2023/07/16 08:28:43;;;;;;;6.95;2.60;;;19.80;99.90;;;;;;4993222;28;20561;-34
2023/07/16 08:31:11;;;;;;;6.85;2.25;;;19.80;99.90;;;;;;4984947;28;20047;-34
2023/07/16 08:33:37;;;;;;;8.30;2.95;;;19.80;99.90;;;;;;4987402;28;20050;-34
2023/07/16 08:36:03;;;;;;;5.55;2.42;;;19.90;99.90;;;;;;4987787;28;20069;-34
2023/07/16 08:38:29;;;;;;;7.22;1.77;;;20.10;99.90;;;;;;4985888;28;20055;-34
2023/07/16 08:40:54;;;;;;;8.63;2.10;;;20.10;99.90;;;;;;4997357;28;20081;-34
2023/07/16 08:43:21;;;;;;;6.30;1.80;;;20.20;99.90;;;;;;4990207;28;20099;-34
2023/07/16 08:45:49;;;;;;;7.50;2.15;;;20.20;99.90;;;;;;4989489;28;20129;-34
2023/07/16 08:48:18;;;;;;;6.78;2.03;;;20.20;99.90;;;;;;4981116;28;20519;-34
2023/07/16 08:50:49;;;;;;;7.47;2.33;;;20.30;99.90;;;;;;4997061;28;20086;-34
2023/07/16 08:53:18;;;;;;;7.40;2.05;;;20.30;99.90;;;;;;4990383;28;20069;-35
2023/07/16 08:55:48;;;;;;;3.45;1.88;;;20.30;99.90;;;;;;4995106;28;20467;-35
2023/07/16 08:58:14;;;;;;;6.68;2.05;;;20.20;99.90;;;;;;4985610;28;20447;-34
2023/07/16 09:00:42;;;;;;;8.82;2.05;;;20.10;99.90;;;;;;4985319;28;20115;-34
2023/07/16 09:03:10;;;;;;;4.80;1.95;;;20.10;99.90;;;;;;4990904;28;21363;-34
2023/07/16 09:05:36;;;;;;;4.20;1.88;;;20.00;99.90;;;;;;4987650;28;20050;-35
2023/07/16 09:08:02;;;;;;;6.70;2.30;;;19.90;99.90;;;;;;5001221;28;20152;-35
2023/07/16 09:10:28;;;;;;;6.78;2.25;;;19.80;99.90;;;;;;4988897;28;20529;-35
2023/07/16 09:12:58;;;;;;;5.25;2.15;;;19.80;99.90;;;;;;4999902;28;20061;-35
2023/07/16 09:15:24;;;;;;;6.28;2.55;;;19.80;99.90;;;;;;4981611;28;20054;-35
2023/07/16 09:17:50;;;;;;;8.85;2.05;;;19.70;99.90;;;;;;4994708;28;20068;-35
2023/07/16 09:20:17;;;;;;;7.55;2.22;;;19.70;99.90;;;;;;4992671;28;20508;-35
2023/07/16 09:22:44;;;;;;;6.45;2.42;;;19.80;99.90;;;;;;4988329;28;20062;-35
2023/07/16 09:25:10;;;;;;;6.60;1.98;;;20.10;99.90;;;;;;4981375;28;20488;-35
2023/07/16 09:27:36;;;;;;;6.15;2.17;;;20.20;99.90;;;;;;4981135;28;20050;-35
2023/07/16 09:30:05;;;;;;;7.78;2.58;;;20.40;99.90;;;;;;4986884;28;20390;-35
2023/07/16 09:32:39;;;;;;;9.85;2.63;;;20.60;99.90;;;;;;4983607;28;20077;-35
2023/07/16 09:35:16;;;;;;;5.07;2.08;;;20.80;99.90;;;;;;4971436;28;20058;-41
2023/07/16 09:37:42;;;;;;;6.18;2.10;;;20.90;99.90;;;;;;4988557;28;20053;-34
2023/07/16 09:40:10;;;;;;;7.72;2.35;;;20.90;99.90;;;;;;4990292;28;20426;-34
2023/07/16 09:42:41;;;;;;;4.53;2.00;;;20.70;99.90;;;;;;4996288;28;20611;-34
2023/07/16 09:45:08;;;;;;;5.85;2.08;;;20.70;99.90;;;;;;4986566;28;20080;-34
2023/07/16 09:47:37;;;;;;;6.38;1.88;;;20.70;99.90;;;;;;4979293;28;20055;-32
2023/07/16 09:50:04;;;;;;;5.00;1.92;;;20.70;99.90;;;;;;4988167;28;20460;-34
2023/07/16 09:52:32;;;;;;;6.15;2.25;;;20.60;99.90;;;;;;4990746;28;20408;-34
2023/07/16 09:55:01;;;;;;;5.03;2.42;;;20.40;99.90;;;;;;4988078;28;20046;-34
2023/07/16 09:57:32;;;;;;;6.60;2.55;;;20.20;99.90;;;;;;4985401;28;20081;-34
2023/07/16 10:00:00;;;;;;;17.10;2.80;;;20.10;99.90;;;;;;4987734;28;20054;-34
2023/07/16 10:02:26;;;;;;;8.48;2.33;;;20.00;99.90;;;;;;5003074;28;20049;-34
2023/07/16 10:04:55;;;;;;;7.25;2.13;;;19.90;99.90;;;;;;4995288;28;20096;-33
2023/07/16 10:07:26;;;;;;;6.28;2.80;;;19.90;99.90;;;;;;4998349;28;20570;-34
2023/07/16 10:09:56;;;;;;;5.07;2.25;;;20.00;99.90;;;;;;4985862;28;20085;-34
2023/07/16 10:12:24;;;;;;;6.82;2.60;;;20.40;99.90;;;;;;4985451;28;20065;-34
2023/07/16 10:14:50;;;;;;;5.05;2.20;;;20.60;99.90;;;;;;4994191;28;20050;-35
2023/07/16 10:17:17;;;;;;;6.00;2.15;;;20.80;99.90;;;;;;4985691;28;20752;-39
2023/07/16 10:20:05;;;;;;;7.47;2.35;;;20.70;99.90;;;;;;4980701;28;20039;-34
2023/07/16 10:22:38;;;;;;;6.75;2.00;;;20.60;99.90;;;;;;4983876;28;20068;-35
2023/07/16 10:25:25;;;;;;;4.72;1.90;;;20.60;99.90;;;;;;4974473;28;20145;-34
2023/07/16 10:27:52;;;;;;;6.30;1.92;;;20.70;99.90;;;;;;4978396;28;20054;-34
2023/07/16 10:30:19;;;;;;;6.85;2.10;;;20.70;99.90;;;;;;4990043;28;20049;-34
2023/07/16 10:32:45;;;;;;;5.88;2.20;;;20.70;99.90;;;;;;4973620;28;20050;-34
2023/07/16 10:35:11;;;;;;;7.13;2.55;;;20.80;99.90;;;;;;4991019;28;20046;-34
2023/07/16 10:37:37;;;;;;;7.72;2.10;;;20.80;99.90;;;;;;4981779;28;20046;-34
2023/07/16 10:40:04;;;;;;;4.63;2.67;;;20.80;99.90;;;;;;4991456;28;20566;-34
2023/07/16 10:42:31;;;;;;;6.22;2.10;;;20.80;99.90;;;;;;4993916;28;20374;-34
2023/07/16 10:45:02;;;;;;;3.55;1.50;;;20.90;99.90;;;;;;4989834;28;20204;-34
2023/07/16 10:47:35;;;;;;;5.93;2.03;;;21.00;99.90;;;;;;4983758;28;20074;-34
2023/07/16 10:50:05;;;;;;;4.88;2.28;;;20.90;99.90;;;;;;4977350;28;20539;-34
2023/07/16 10:52:31;;;;;;;4.45;2.00;;;20.90;99.90;;;;;;4998218;28;20057;-34
2023/07/16 10:55:00;;;;;;;4.97;2.30;;;21.00;99.90;;;;;;4983372;28;20944;-34
2023/07/16 10:57:26;;;;;;;5.70;1.98;;;21.20;99.90;;;;;;4996135;28;20119;-34
2023/07/16 10:59:57;;;;;;;5.68;2.00;;;21.20;99.90;;;;;;4972153;28;20053;-34
2023/07/16 11:02:24;;;;;;;4.68;2.20;;;21.10;99.90;;;;;;4988113;28;20044;-34
2023/07/16 11:04:53;;;;;;;5.32;2.40;;;20.90;99.90;;;;;;4985719;28;20042;-35
2023/07/16 11:07:20;;;;;;;6.20;1.83;;;20.70;99.90;;;;;;4992696;28;20050;-34
2023/07/16 11:09:51;;;;;;;5.57;2.58;;;20.50;99.90;;;;;;4977124;28;20050;-34
2023/07/16 11:12:21;;;;;;;7.28;2.25;;;20.50;99.90;;;;;;4979807;28;20047;-34
2023/07/16 11:14:49;;;;;;;5.38;2.80;;;20.40;99.90;;;;;;4991695;28;20045;-34
2023/07/16 11:17:15;;;;;;;5.88;2.47;;;20.40;99.90;;;;;;5012158;28;20472;-34
2023/07/16 11:19:45;;;;;;;7.88;2.35;;;20.40;99.90;;;;;;5000617;28;20423;-34
2023/07/16 11:22:11;;;;;;;7.38;2.30;;;20.30;99.90;;;;;;5015052;28;20504;-34
2023/07/16 11:24:50;;;;;;;4.03;1.80;;;20.20;99.90;;;;;;4988492;28;20060;-34
2023/07/16 11:27:21;;;;;;;6.18;2.42;;;20.20;99.90;;;;;;4988433;28;20054;-34
2023/07/16 11:29:57;;;;;;;5.93;2.28;;;20.20;99.90;;;;;;4991857;28;20104;-34
2023/07/16 11:32:36;;;;;;;7.00;2.60;;;20.30;99.90;;;;;;4982147;28;20092;-34
2023/07/16 11:35:07;;;;;;;7.43;2.53;;;20.50;99.90;;;;;;4993394;28;20614;-34
2023/07/16 11:37:35;;;;;;;4.43;2.22;;;20.60;99.90;;;;;;4992216;28;20049;-34
2023/07/16 11:40:03;;;;;;;6.18;2.08;;;20.80;99.90;;;;;;4994725;28;20049;-34
2023/07/16 11:42:30;;;;;;;6.15;2.97;;;21.00;99.90;;;;;;4992596;28;20050;-35
2023/07/16 11:44:56;;;;;;;5.03;2.25;;;20.90;99.90;;;;;;4991628;28;20136;-35
2023/07/16 11:47:22;;;;;;;5.63;1.83;;;20.80;99.90;;;;;;4990030;28;20120;-34
2023/07/16 11:49:48;;;;;;;7.20;2.42;;;20.80;99.90;;;;;;4981955;28;20049;-34
2023/07/16 11:52:18;;;;;;;7.28;2.15;;;20.80;99.90;;;;;;4988058;28;20092;-34
2023/07/16 11:54:44;;;;;;;5.05;1.98;;;20.90;99.90;;;;;;4991480;28;20050;-34
2023/07/16 11:57:09;;;;;;;4.57;1.80;;;21.10;99.90;;;;;;4994876;28;20088;-34
2023/07/16 11:59:35;;;;;;;7.82;2.42;;;21.00;99.90;;;;;;4991547;28;20108;-34
2023/07/16 12:02:01;;;;;;;6.95;2.25;;;20.90;99.90;;;;;;4992300;28;20077;-34
2023/07/16 12:04:26;;;;;;;3.67;1.80;;;20.70;99.90;;;;;;5000927;28;20120;-34
2023/07/16 12:06:53;;;;;;;4.15;1.88;;;20.60;99.90;;;;;;4989930;28;20050;-34
2023/07/16 12:09:18;;;;;;;4.55;2.00;;;20.50;99.90;;;;;;4989409;28;20050;-34
2023/07/16 12:11:44;;;;;;;6.15;2.00;;;20.50;99.90;;;;;;4995697;28;20493;-34
2023/07/16 12:14:12;;;;;;;5.97;2.22;;;20.60;99.90;;;;;;4998264;28;20046;-34
2023/07/16 12:16:37;;;;;;;8.75;2.38;;;20.70;99.90;;;;;;5001323;28;20132;-34
2023/07/16 12:19:03;;;;;;;6.95;2.30;;;20.70;99.90;;;;;;4990793;28;20304;-34
2023/07/16 12:21:28;;;;;;;6.85;1.92;;;20.80;99.90;;;;;;4995732;28;20054;-34
2023/07/16 12:23:55;;;;;;;4.10;2.13;;;20.70;99.90;;;;;;5008210;28;20055;-34
2023/07/16 12:26:20;;;;;;;5.00;2.20;;;20.70;99.90;;;;;;4987466;28;20056;-34
2023/07/16 12:28:46;;;;;;;4.85;2.00;;;20.70;99.90;;;;;;4998349;28;20049;-34
2023/07/16 12:31:12;;;;;;;3.70;1.70;;;20.70;99.90;;;;;;4987240;28;20428;-34
2023/07/16 12:33:37;;;;;;;3.53;1.70;;;20.90;99.90;;;;;;4994649;28;20416;-34
2023/07/16 12:36:03;;;;;;;2.75;1.20;;;20.90;99.90;;;;;;4991585;28;20058;-34
2023/07/16 12:38:29;;;;;;;2.47;0.98;;;21.00;99.90;;;;;;4985769;28;20061;-34
2023/07/16 12:40:55;;;;;;;2.20;0.98;;;20.90;99.90;;;;;;4997345;28;20089;-34
2023/07/16 12:43:20;;;;;;;3.20;1.05;;;20.80;99.90;;;;;;4997001;28;20050;-34